sensor_id;sensor_type;location;lat;lon;timestamp;P1;durP1;ratioP1;P2;durP2;ratioP2
64826;SDS011;51265;53.972;12.286;2023-01-29T00:01:21;47.30;;;20.77;;
64826;SDS011;51265;53.972;12.286;2023-01-29T00:03:49;55.00;;;23.00;;
64826;SDS011;51265;53.972;12.286;2023-01-29T00:06:16;54.53;;;20.73;;
64826;SDS011;51265;53.972;12.286;2023-01-29T00:08:42;59.55;;;24.48;;
64826;SDS011;51265;53.972;12.286;2023-01-29T00:11:09;58.05;;;22.17;;
64826;SDS011;51265;53.972;12.286;2023-01-29T00:13:35;59.00;;;23.33;;
64826;SDS011;51265;53.972;12.286;2023-01-29T00:16:01;62.38;;;24.35;;
64826;SDS011;51265;53.972;12.286;2023-01-29T00:18:29;58.03;;;23.10;;
64826;SDS011;51265;53.972;12.286;2023-01-29T00:20:55;59.33;;;24.48;;
64826;SDS011;51265;53.972;12.286;2023-01-29T00:23:22;62.50;;;23.70;;
64826;SDS011;51265;53.972;12.286;2023-01-29T00:25:48;58.28;;;23.42;;
64826;SDS011;51265;53.972;12.286;2023-01-29T00:28:14;55.90;;;22.67;;
64826;SDS011;51265;53.972;12.286;2023-01-29T00:30:41;60.15;;;22.60;;
64826;SDS011;51265;53.972;12.286;2023-01-29T00:33:07;62.85;;;24.80;;
64826;SDS011;51265;53.972;12.286;2023-01-29T00:35:33;61.20;;;23.00;;
64826;SDS011;51265;53.972;12.286;2023-01-29T00:38:00;56.05;;;23.13;;
64826;SDS011;51265;53.972;12.286;2023-01-29T00:40:26;57.40;;;23.50;;
64826;SDS011;51265;53.972;12.286;2023-01-29T00:42:52;60.85;;;23.58;;
64826;SDS011;51265;53.972;12.286;2023-01-29T00:45:38;51.72;;;22.08;;
64826;SDS011;51265;53.972;12.286;2023-01-29T00:48:05;60.63;;;24.13;;
64826;SDS011;51265;53.972;12.286;2023-01-29T00:50:31;55.22;;;21.83;;
64826;SDS011;51265;53.972;12.286;2023-01-29T00:52:57;54.00;;;21.98;;
64826;SDS011;51265;53.972;12.286;2023-01-29T00:55:23;54.45;;;21.80;;
64826;SDS011;51265;53.972;12.286;2023-01-29T00:57:50;53.70;;;22.42;;
64826;SDS011;51265;53.972;12.286;2023-01-29T01:00:17;58.65;;;22.52;;
64826;SDS011;51265;53.972;12.286;2023-01-29T01:02:43;51.85;;;21.95;;
64826;SDS011;51265;53.972;12.286;2023-01-29T01:05:29;58.13;;;22.55;;
64826;SDS011;51265;53.972;12.286;2023-01-29T01:07:57;54.42;;;22.98;;
64826;SDS011;51265;53.972;12.286;2023-01-29T01:10:30;57.83;;;22.20;;
64826;SDS011;51265;53.972;12.286;2023-01-29T01:13:04;58.55;;;22.63;;
64826;SDS011;51265;53.972;12.286;2023-01-29T01:15:37;58.10;;;23.48;;
64826;SDS011;51265;53.972;12.286;2023-01-29T01:18:04;59.13;;;22.85;;
64826;SDS011;51265;53.972;12.286;2023-01-29T01:20:32;51.10;;;20.13;;
64826;SDS011;51265;53.972;12.286;2023-01-29T01:22:59;60.78;;;24.40;;
64826;SDS011;51265;53.972;12.286;2023-01-29T01:25:25;56.95;;;22.83;;
64826;SDS011;51265;53.972;12.286;2023-01-29T01:27:53;59.67;;;22.63;;
64826;SDS011;51265;53.972;12.286;2023-01-29T01:30:21;59.60;;;21.77;;
64826;SDS011;51265;53.972;12.286;2023-01-29T01:32:48;50.63;;;21.90;;
64826;SDS011;51265;53.972;12.286;2023-01-29T01:35:15;60.42;;;22.73;;
64826;SDS011;51265;53.972;12.286;2023-01-29T01:37:41;58.25;;;22.63;;
64826;SDS011;51265;53.972;12.286;2023-01-29T01:40:10;57.97;;;21.60;;
64826;SDS011;51265;53.972;12.286;2023-01-29T01:42:46;62.53;;;22.15;;
64826;SDS011;51265;53.972;12.286;2023-01-29T01:45:21;57.63;;;23.85;;
64826;SDS011;51265;53.972;12.286;2023-01-29T01:53:29;60.28;;;23.05;;
64826;SDS011;51265;53.972;12.286;2023-01-29T01:56:03;56.88;;;21.48;;
64826;SDS011;51265;53.972;12.286;2023-01-29T01:58:35;64.85;;;23.13;;
64826;SDS011;51265;53.972;12.286;2023-01-29T02:01:06;61.97;;;21.95;;
64826;SDS011;51265;53.972;12.286;2023-01-29T02:03:39;64.28;;;22.40;;
64826;SDS011;51265;53.972;12.286;2023-01-29T02:06:29;59.17;;;21.33;;
64826;SDS011;51265;53.972;12.286;2023-01-29T02:09:16;59.83;;;22.00;;
64826;SDS011;51265;53.972;12.286;2023-01-29T02:12:06;65.95;;;23.77;;
64826;SDS011;51265;53.972;12.286;2023-01-29T02:14:36;74.07;;;24.45;;
64826;SDS011;51265;53.972;12.286;2023-01-29T02:17:05;64.60;;;23.02;;
64826;SDS011;51265;53.972;12.286;2023-01-29T02:19:54;76.93;;;27.33;;
64826;SDS011;51265;53.972;12.286;2023-01-29T02:22:49;81.20;;;26.63;;
64826;SDS011;51265;53.972;12.286;2023-01-29T02:25:46;85.53;;;28.85;;
64826;SDS011;51265;53.972;12.286;2023-01-29T02:31:09;80.32;;;26.10;;
64826;SDS011;51265;53.972;12.286;2023-01-29T02:33:54;79.72;;;27.15;;
64826;SDS011;51265;53.972;12.286;2023-01-29T02:39:28;77.68;;;25.98;;
64826;SDS011;51265;53.972;12.286;2023-01-29T02:47:21;87.22;;;26.35;;
64826;SDS011;51265;53.972;12.286;2023-01-29T02:50:00;86.88;;;25.25;;
64826;SDS011;51265;53.972;12.286;2023-01-29T02:52:34;95.07;;;27.30;;
64826;SDS011;51265;53.972;12.286;2023-01-29T02:55:11;90.78;;;27.75;;
64826;SDS011;51265;53.972;12.286;2023-01-29T02:57:42;84.97;;;26.98;;
64826;SDS011;51265;53.972;12.286;2023-01-29T03:00:13;90.32;;;27.17;;
64826;SDS011;51265;53.972;12.286;2023-01-29T03:08:32;87.97;;;27.63;;
64826;SDS011;51265;53.972;12.286;2023-01-29T03:11:11;94.72;;;27.17;;
64826;SDS011;51265;53.972;12.286;2023-01-29T03:13:46;81.10;;;26.65;;
64826;SDS011;51265;53.972;12.286;2023-01-29T03:16:42;88.15;;;27.00;;
64826;SDS011;51265;53.972;12.286;2023-01-29T03:19:15;75.45;;;25.13;;
64826;SDS011;51265;53.972;12.286;2023-01-29T03:21:43;81.38;;;26.52;;
64826;SDS011;51265;53.972;12.286;2023-01-29T03:24:31;85.97;;;26.75;;
64826;SDS011;51265;53.972;12.286;2023-01-29T03:38:31;71.97;;;22.20;;
64826;SDS011;51265;53.972;12.286;2023-01-29T03:41:19;67.97;;;23.08;;
64826;SDS011;51265;53.972;12.286;2023-01-29T03:44:05;73.50;;;21.67;;
64826;SDS011;51265;53.972;12.286;2023-01-29T03:46:51;64.47;;;21.30;;
64826;SDS011;51265;53.972;12.286;2023-01-29T03:49:29;67.57;;;23.08;;
64826;SDS011;51265;53.972;12.286;2023-01-29T03:54:56;67.05;;;23.92;;
64826;SDS011;51265;53.972;12.286;2023-01-29T03:57:39;75.13;;;21.77;;
64826;SDS011;51265;53.972;12.286;2023-01-29T04:00:16;67.22;;;22.63;;
64826;SDS011;51265;53.972;12.286;2023-01-29T04:03:14;55.53;;;20.05;;
64826;SDS011;51265;53.972;12.286;2023-01-29T04:05:54;66.30;;;23.55;;
64826;SDS011;51265;53.972;12.286;2023-01-29T04:08:31;67.40;;;23.67;;
64826;SDS011;51265;53.972;12.286;2023-01-29T04:11:02;84.78;;;24.52;;
64826;SDS011;51265;53.972;12.286;2023-01-29T04:13:35;72.10;;;23.10;;
64826;SDS011;51265;53.972;12.286;2023-01-29T04:16:03;79.63;;;23.25;;
64826;SDS011;51265;53.972;12.286;2023-01-29T04:19:07;71.03;;;24.20;;
64826;SDS011;51265;53.972;12.286;2023-01-29T04:21:37;67.57;;;23.02;;
64826;SDS011;51265;53.972;12.286;2023-01-29T04:24:05;73.78;;;24.63;;
64826;SDS011;51265;53.972;12.286;2023-01-29T04:35:19;73.40;;;25.50;;
64826;SDS011;51265;53.972;12.286;2023-01-29T04:37:56;58.47;;;21.92;;
64826;SDS011;51265;53.972;12.286;2023-01-29T04:43:26;66.13;;;24.30;;
64826;SDS011;51265;53.972;12.286;2023-01-29T04:51:42;56.60;;;22.25;;
64826;SDS011;51265;53.972;12.286;2023-01-29T04:54:15;60.58;;;23.42;;
64826;SDS011;51265;53.972;12.286;2023-01-29T04:56:52;61.22;;;21.33;;
64826;SDS011;51265;53.972;12.286;2023-01-29T04:59:41;56.05;;;21.13;;
64826;SDS011;51265;53.972;12.286;2023-01-29T05:02:12;50.85;;;19.88;;
64826;SDS011;51265;53.972;12.286;2023-01-29T05:04:39;56.35;;;21.45;;
64826;SDS011;51265;53.972;12.286;2023-01-29T05:07:10;56.50;;;21.30;;
64826;SDS011;51265;53.972;12.286;2023-01-29T05:09:39;55.70;;;21.35;;
64826;SDS011;51265;53.972;12.286;2023-01-29T05:12:08;53.63;;;20.63;;
64826;SDS011;51265;53.972;12.286;2023-01-29T05:14:38;50.17;;;20.27;;
64826;SDS011;51265;53.972;12.286;2023-01-29T05:17:09;49.83;;;19.63;;
64826;SDS011;51265;53.972;12.286;2023-01-29T05:19:40;50.70;;;20.40;;
64826;SDS011;51265;53.972;12.286;2023-01-29T05:22:08;50.30;;;19.63;;
64826;SDS011;51265;53.972;12.286;2023-01-29T05:24:37;48.80;;;19.73;;
64826;SDS011;51265;53.972;12.286;2023-01-29T05:27:03;54.67;;;22.85;;
64826;SDS011;51265;53.972;12.286;2023-01-29T05:29:48;54.60;;;20.80;;
64826;SDS011;51265;53.972;12.286;2023-01-29T05:32:14;52.70;;;19.55;;
64826;SDS011;51265;53.972;12.286;2023-01-29T05:34:41;42.50;;;18.00;;
64826;SDS011;51265;53.972;12.286;2023-01-29T05:37:08;46.47;;;18.58;;
64826;SDS011;51265;53.972;12.286;2023-01-29T05:39:35;43.63;;;18.10;;
64826;SDS011;51265;53.972;12.286;2023-01-29T05:42:01;46.92;;;18.38;;
64826;SDS011;51265;53.972;12.286;2023-01-29T05:44:27;41.53;;;18.45;;
64826;SDS011;51265;53.972;12.286;2023-01-29T05:46:54;41.35;;;18.13;;
64826;SDS011;51265;53.972;12.286;2023-01-29T05:49:20;41.50;;;18.02;;
64826;SDS011;51265;53.972;12.286;2023-01-29T05:51:47;42.65;;;16.75;;
64826;SDS011;51265;53.972;12.286;2023-01-29T05:54:13;45.72;;;20.05;;
64826;SDS011;51265;53.972;12.286;2023-01-29T05:56:39;43.95;;;18.05;;
64826;SDS011;51265;53.972;12.286;2023-01-29T05:59:05;45.15;;;19.27;;
64826;SDS011;51265;53.972;12.286;2023-01-29T06:01:32;41.13;;;17.58;;
64826;SDS011;51265;53.972;12.286;2023-01-29T06:03:58;44.08;;;18.38;;
64826;SDS011;51265;53.972;12.286;2023-01-29T06:06:24;38.58;;;17.13;;
64826;SDS011;51265;53.972;12.286;2023-01-29T06:08:50;44.38;;;18.33;;
64826;SDS011;51265;53.972;12.286;2023-01-29T06:11:17;38.67;;;18.38;;
64826;SDS011;51265;53.972;12.286;2023-01-29T06:13:43;41.38;;;18.55;;
64826;SDS011;51265;53.972;12.286;2023-01-29T06:16:10;39.10;;;17.98;;
64826;SDS011;51265;53.972;12.286;2023-01-29T06:18:37;43.75;;;17.92;;
64826;SDS011;51265;53.972;12.286;2023-01-29T06:21:05;39.28;;;16.25;;
64826;SDS011;51265;53.972;12.286;2023-01-29T06:23:32;37.90;;;17.88;;
64826;SDS011;51265;53.972;12.286;2023-01-29T06:26:00;34.38;;;16.17;;
64826;SDS011;51265;53.972;12.286;2023-01-29T06:28:30;36.40;;;16.17;;
64826;SDS011;51265;53.972;12.286;2023-01-29T06:30:57;36.17;;;16.33;;
64826;SDS011;51265;53.972;12.286;2023-01-29T06:33:24;32.88;;;14.98;;
64826;SDS011;51265;53.972;12.286;2023-01-29T06:36:00;30.45;;;15.50;;
64826;SDS011;51265;53.972;12.286;2023-01-29T06:38:28;33.78;;;15.05;;
64826;SDS011;51265;53.972;12.286;2023-01-29T06:40:54;31.38;;;15.70;;
64826;SDS011;51265;53.972;12.286;2023-01-29T06:43:21;31.98;;;16.30;;
64826;SDS011;51265;53.972;12.286;2023-01-29T06:48:22;31.23;;;14.73;;
64826;SDS011;51265;53.972;12.286;2023-01-29T06:50:49;27.48;;;14.63;;
64826;SDS011;51265;53.972;12.286;2023-01-29T06:53:15;25.75;;;14.27;;
64826;SDS011;51265;53.972;12.286;2023-01-29T06:55:43;29.90;;;13.65;;
64826;SDS011;51265;53.972;12.286;2023-01-29T06:58:15;28.10;;;13.18;;
64826;SDS011;51265;53.972;12.286;2023-01-29T07:00:42;26.98;;;12.77;;
64826;SDS011;51265;53.972;12.286;2023-01-29T07:03:08;22.88;;;12.05;;
64826;SDS011;51265;53.972;12.286;2023-01-29T07:05:36;27.83;;;13.10;;
64826;SDS011;51265;53.972;12.286;2023-01-29T07:08:02;29.10;;;13.60;;
64826;SDS011;51265;53.972;12.286;2023-01-29T07:10:29;25.20;;;12.77;;
64826;SDS011;51265;53.972;12.286;2023-01-29T07:12:57;23.08;;;11.80;;
64826;SDS011;51265;53.972;12.286;2023-01-29T07:15:24;27.30;;;11.73;;
64826;SDS011;51265;53.972;12.286;2023-01-29T07:17:56;30.50;;;12.55;;
64826;SDS011;51265;53.972;12.286;2023-01-29T07:20:28;27.30;;;12.40;;
64826;SDS011;51265;53.972;12.286;2023-01-29T07:22:55;26.30;;;12.05;;
64826;SDS011;51265;53.972;12.286;2023-01-29T07:25:22;23.77;;;11.55;;
64826;SDS011;51265;53.972;12.286;2023-01-29T07:27:48;21.67;;;11.32;;
64826;SDS011;51265;53.972;12.286;2023-01-29T07:30:15;20.90;;;11.23;;
64826;SDS011;51265;53.972;12.286;2023-01-29T07:32:42;23.02;;;11.10;;
64826;SDS011;51265;53.972;12.286;2023-01-29T07:35:08;20.35;;;9.90;;
64826;SDS011;51265;53.972;12.286;2023-01-29T07:37:35;19.35;;;10.07;;
64826;SDS011;51265;53.972;12.286;2023-01-29T07:40:01;19.50;;;9.98;;
64826;SDS011;51265;53.972;12.286;2023-01-29T07:42:30;21.92;;;10.93;;
64826;SDS011;51265;53.972;12.286;2023-01-29T07:44:56;19.83;;;10.27;;
64826;SDS011;51265;53.972;12.286;2023-01-29T07:47:22;20.83;;;10.43;;
64826;SDS011;51265;53.972;12.286;2023-01-29T07:49:48;21.20;;;10.70;;
64826;SDS011;51265;53.972;12.286;2023-01-29T07:52:15;18.83;;;10.00;;
64826;SDS011;51265;53.972;12.286;2023-01-29T07:54:41;20.45;;;10.10;;
64826;SDS011;51265;53.972;12.286;2023-01-29T07:57:07;23.67;;;11.32;;
64826;SDS011;51265;53.972;12.286;2023-01-29T07:59:33;19.77;;;10.40;;
64826;SDS011;51265;53.972;12.286;2023-01-29T08:01:59;20.45;;;10.82;;
64826;SDS011;51265;53.972;12.286;2023-01-29T08:04:25;20.75;;;10.77;;
64826;SDS011;51265;53.972;12.286;2023-01-29T08:06:51;22.90;;;11.70;;
64826;SDS011;51265;53.972;12.286;2023-01-29T08:09:18;19.48;;;10.80;;
64826;SDS011;51265;53.972;12.286;2023-01-29T08:11:44;28.90;;;13.02;;
64826;SDS011;51265;53.972;12.286;2023-01-29T08:14:10;20.83;;;11.70;;
64826;SDS011;51265;53.972;12.286;2023-01-29T08:16:36;21.80;;;11.73;;
64826;SDS011;51265;53.972;12.286;2023-01-29T08:19:02;25.42;;;11.90;;
64826;SDS011;51265;53.972;12.286;2023-01-29T08:21:29;23.13;;;11.52;;
64826;SDS011;51265;53.972;12.286;2023-01-29T08:23:55;22.80;;;12.20;;
64826;SDS011;51265;53.972;12.286;2023-01-29T08:26:21;23.70;;;12.68;;
64826;SDS011;51265;53.972;12.286;2023-01-29T08:28:47;19.90;;;11.88;;
64826;SDS011;51265;53.972;12.286;2023-01-29T08:31:17;18.58;;;10.55;;
64826;SDS011;51265;53.972;12.286;2023-01-29T08:33:47;21.48;;;11.88;;
64826;SDS011;51265;53.972;12.286;2023-01-29T08:36:13;19.63;;;11.00;;
64826;SDS011;51265;53.972;12.286;2023-01-29T08:38:40;19.58;;;10.93;;
64826;SDS011;51265;53.972;12.286;2023-01-29T08:41:06;19.42;;;10.82;;
64826;SDS011;51265;53.972;12.286;2023-01-29T08:43:33;18.35;;;10.82;;
64826;SDS011;51265;53.972;12.286;2023-01-29T08:46:02;22.55;;;11.13;;
64826;SDS011;51265;53.972;12.286;2023-01-29T08:48:29;18.85;;;10.80;;
64826;SDS011;51265;53.972;12.286;2023-01-29T08:50:57;20.58;;;11.68;;
64826;SDS011;51265;53.972;12.286;2023-01-29T08:53:24;16.95;;;10.20;;
64826;SDS011;51265;53.972;12.286;2023-01-29T08:55:51;17.40;;;10.13;;
64826;SDS011;51265;53.972;12.286;2023-01-29T08:58:18;19.60;;;10.68;;
64826;SDS011;51265;53.972;12.286;2023-01-29T09:00:44;16.88;;;10.18;;
64826;SDS011;51265;53.972;12.286;2023-01-29T09:03:10;16.33;;;9.85;;
64826;SDS011;51265;53.972;12.286;2023-01-29T09:05:37;18.42;;;9.80;;
64826;SDS011;51265;53.972;12.286;2023-01-29T09:08:04;16.45;;;9.70;;
64826;SDS011;51265;53.972;12.286;2023-01-29T09:10:32;15.20;;;9.73;;
64826;SDS011;51265;53.972;12.286;2023-01-29T09:12:58;20.73;;;10.57;;
64826;SDS011;51265;53.972;12.286;2023-01-29T09:15:25;14.82;;;9.07;;
64826;SDS011;51265;53.972;12.286;2023-01-29T09:17:51;20.75;;;10.30;;
64826;SDS011;51265;53.972;12.286;2023-01-29T09:20:18;21.35;;;9.80;;
64826;SDS011;51265;53.972;12.286;2023-01-29T09:22:45;18.10;;;9.95;;
64826;SDS011;51265;53.972;12.286;2023-01-29T09:25:11;19.65;;;9.57;;
64826;SDS011;51265;53.972;12.286;2023-01-29T09:27:48;14.32;;;8.80;;
64826;SDS011;51265;53.972;12.286;2023-01-29T09:30:14;15.20;;;8.82;;
64826;SDS011;51265;53.972;12.286;2023-01-29T09:32:40;17.45;;;8.73;;
64826;SDS011;51265;53.972;12.286;2023-01-29T09:35:07;14.45;;;8.90;;
64826;SDS011;51265;53.972;12.286;2023-01-29T09:37:34;14.80;;;8.50;;
64826;SDS011;51265;53.972;12.286;2023-01-29T09:40:00;12.95;;;8.07;;
64826;SDS011;51265;53.972;12.286;2023-01-29T09:42:33;16.38;;;8.45;;
64826;SDS011;51265;53.972;12.286;2023-01-29T09:45:11;16.90;;;8.13;;
64826;SDS011;51265;53.972;12.286;2023-01-29T09:47:40;14.55;;;7.82;;
64826;SDS011;51265;53.972;12.286;2023-01-29T09:50:08;13.65;;;7.78;;
64826;SDS011;51265;53.972;12.286;2023-01-29T09:52:45;13.38;;;6.75;;
64826;SDS011;51265;53.972;12.286;2023-01-29T09:55:21;11.48;;;6.88;;
64826;SDS011;51265;53.972;12.286;2023-01-29T10:00:48;13.15;;;7.35;;
64826;SDS011;51265;53.972;12.286;2023-01-29T10:03:47;11.18;;;6.45;;
64826;SDS011;51265;53.972;12.286;2023-01-29T10:09:17;14.02;;;7.30;;
64826;SDS011;51265;53.972;12.286;2023-01-29T10:14:42;11.88;;;7.00;;
64826;SDS011;51265;53.972;12.286;2023-01-29T10:23:31;11.43;;;6.63;;
64826;SDS011;51265;53.972;12.286;2023-01-29T10:25:59;15.07;;;7.20;;
64826;SDS011;51265;53.972;12.286;2023-01-29T10:28:44;15.13;;;7.53;;
64826;SDS011;51265;53.972;12.286;2023-01-29T10:31:24;15.40;;;8.32;;
64826;SDS011;51265;53.972;12.286;2023-01-29T10:33:57;16.65;;;9.23;;
64826;SDS011;51265;53.972;12.286;2023-01-29T10:36:46;16.45;;;8.60;;
64826;SDS011;51265;53.972;12.286;2023-01-29T10:39:17;16.75;;;8.93;;
64826;SDS011;51265;53.972;12.286;2023-01-29T10:50:07;18.92;;;9.50;;
64826;SDS011;51265;53.972;12.286;2023-01-29T10:53:07;19.02;;;10.60;;
64826;SDS011;51265;53.972;12.286;2023-01-29T11:00:55;18.00;;;10.77;;
64826;SDS011;51265;53.972;12.286;2023-01-29T11:03:25;18.30;;;10.48;;
64826;SDS011;51265;53.972;12.286;2023-01-29T11:11:30;15.55;;;9.68;;
64826;SDS011;51265;53.972;12.286;2023-01-29T11:14:02;18.05;;;10.65;;
64826;SDS011;51265;53.972;12.286;2023-01-29T11:16:39;18.98;;;10.35;;
64826;SDS011;51265;53.972;12.286;2023-01-29T11:19:07;17.52;;;10.57;;
64826;SDS011;51265;53.972;12.286;2023-01-29T11:21:48;25.23;;;12.38;;
64826;SDS011;51265;53.972;12.286;2023-01-29T11:24:16;17.25;;;10.32;;
64826;SDS011;51265;53.972;12.286;2023-01-29T11:26:44;21.23;;;11.35;;
64826;SDS011;51265;53.972;12.286;2023-01-29T11:29:33;20.08;;;11.13;;
64826;SDS011;51265;53.972;12.286;2023-01-29T11:32:09;21.65;;;11.85;;
64826;SDS011;51265;53.972;12.286;2023-01-29T11:37:40;20.60;;;11.50;;
64826;SDS011;51265;53.972;12.286;2023-01-29T11:42:49;20.45;;;11.43;;
64826;SDS011;51265;53.972;12.286;2023-01-29T11:45:24;23.52;;;13.68;;
64826;SDS011;51265;53.972;12.286;2023-01-29T11:47:57;22.17;;;12.50;;
64826;SDS011;51265;53.972;12.286;2023-01-29T11:50:25;21.85;;;12.65;;
64826;SDS011;51265;53.972;12.286;2023-01-29T11:53:21;20.45;;;11.43;;
64826;SDS011;51265;53.972;12.286;2023-01-29T11:55:59;20.90;;;11.93;;
64826;SDS011;51265;53.972;12.286;2023-01-29T11:58:28;23.08;;;12.73;;
64826;SDS011;51265;53.972;12.286;2023-01-29T12:00:57;21.77;;;12.65;;
64826;SDS011;51265;53.972;12.286;2023-01-29T12:03:28;20.73;;;12.57;;
64826;SDS011;51265;53.972;12.286;2023-01-29T12:06:03;20.70;;;12.32;;
64826;SDS011;51265;53.972;12.286;2023-01-29T12:08:35;22.30;;;12.68;;
64826;SDS011;51265;53.972;12.286;2023-01-29T12:11:10;24.08;;;12.88;;
64826;SDS011;51265;53.972;12.286;2023-01-29T12:13:40;23.95;;;14.00;;
64826;SDS011;51265;53.972;12.286;2023-01-29T12:21:40;23.92;;;13.63;;
64826;SDS011;51265;53.972;12.286;2023-01-29T12:24:22;22.63;;;13.43;;
64826;SDS011;51265;53.972;12.286;2023-01-29T12:27:27;22.17;;;12.73;;
64826;SDS011;51265;53.972;12.286;2023-01-29T12:30:03;27.00;;;13.45;;
64826;SDS011;51265;53.972;12.286;2023-01-29T12:32:39;21.23;;;12.30;;
64826;SDS011;51265;53.972;12.286;2023-01-29T12:35:19;26.98;;;13.07;;
64826;SDS011;51265;53.972;12.286;2023-01-29T12:38:12;25.83;;;13.88;;
64826;SDS011;51265;53.972;12.286;2023-01-29T12:40:43;25.77;;;13.43;;
64826;SDS011;51265;53.972;12.286;2023-01-29T12:43:17;26.40;;;14.68;;
64826;SDS011;51265;53.972;12.286;2023-01-29T12:45:49;24.80;;;13.80;;
64826;SDS011;51265;53.972;12.286;2023-01-29T12:48:20;29.85;;;15.05;;
64826;SDS011;51265;53.972;12.286;2023-01-29T12:50:51;27.58;;;15.25;;
64826;SDS011;51265;53.972;12.286;2023-01-29T12:53:31;28.95;;;15.38;;
64826;SDS011;51265;53.972;12.286;2023-01-29T12:56:10;23.65;;;13.60;;
64826;SDS011;51265;53.972;12.286;2023-01-29T12:58:45;28.30;;;15.25;;
64826;SDS011;51265;53.972;12.286;2023-01-29T13:01:35;32.58;;;15.57;;
64826;SDS011;51265;53.972;12.286;2023-01-29T13:04:15;32.72;;;16.15;;
64826;SDS011;51265;53.972;12.286;2023-01-29T13:06:52;33.33;;;14.70;;
64826;SDS011;51265;53.972;12.286;2023-01-29T13:09:25;27.50;;;15.13;;
64826;SDS011;51265;53.972;12.286;2023-01-29T13:11:58;37.92;;;16.38;;
64826;SDS011;51265;53.972;12.286;2023-01-29T13:14:40;28.85;;;15.90;;
64826;SDS011;51265;53.972;12.286;2023-01-29T13:19:48;33.35;;;16.73;;
64826;SDS011;51265;53.972;12.286;2023-01-29T13:22:24;35.78;;;17.80;;
64826;SDS011;51265;53.972;12.286;2023-01-29T13:24:52;37.60;;;17.48;;
64826;SDS011;51265;53.972;12.286;2023-01-29T13:27:20;39.10;;;17.83;;
64826;SDS011;51265;53.972;12.286;2023-01-29T13:29:50;36.08;;;16.70;;
64826;SDS011;51265;53.972;12.286;2023-01-29T13:32:25;43.60;;;19.27;;
64826;SDS011;51265;53.972;12.286;2023-01-29T13:34:54;35.78;;;17.85;;
64826;SDS011;51265;53.972;12.286;2023-01-29T13:40:18;39.03;;;19.15;;
64826;SDS011;51265;53.972;12.286;2023-01-29T13:42:49;36.85;;;18.48;;
64826;SDS011;51265;53.972;12.286;2023-01-29T13:47:49;40.15;;;20.13;;
64826;SDS011;51265;53.972;12.286;2023-01-29T13:50:18;43.97;;;20.13;;
64826;SDS011;51265;53.972;12.286;2023-01-29T13:52:56;42.55;;;20.67;;
64826;SDS011;51265;53.972;12.286;2023-01-29T13:55:34;36.90;;;18.88;;
64826;SDS011;51265;53.972;12.286;2023-01-29T13:58:02;42.30;;;20.40;;
64826;SDS011;51265;53.972;12.286;2023-01-29T14:08:01;41.17;;;20.88;;
64826;SDS011;51265;53.972;12.286;2023-01-29T14:11:26;36.88;;;18.88;;
64826;SDS011;51265;53.972;12.286;2023-01-29T14:13:43;37.30;;;19.33;;
64826;SDS011;51265;53.972;12.286;2023-01-29T14:21:47;41.38;;;20.75;;
64826;SDS011;51265;53.972;12.286;2023-01-29T14:24:29;38.28;;;20.27;;
64826;SDS011;51265;53.972;12.286;2023-01-29T14:26:56;41.05;;;20.65;;
64826;SDS011;51265;53.972;12.286;2023-01-29T14:29:23;43.50;;;21.95;;
64826;SDS011;51265;53.972;12.286;2023-01-29T14:31:58;42.05;;;21.90;;
64826;SDS011;51265;53.972;12.286;2023-01-29T14:37:01;41.17;;;21.40;;
64826;SDS011;51265;53.972;12.286;2023-01-29T14:39:46;42.53;;;22.55;;
64826;SDS011;51265;53.972;12.286;2023-01-29T14:42:25;40.13;;;21.35;;
64826;SDS011;51265;53.972;12.286;2023-01-29T14:47:57;40.05;;;21.73;;
64826;SDS011;51265;53.972;12.286;2023-01-29T14:58:38;44.88;;;21.52;;
64826;SDS011;51265;53.972;12.286;2023-01-29T15:01:20;43.00;;;20.95;;
64826;SDS011;51265;53.972;12.286;2023-01-29T15:03:49;38.08;;;20.98;;
64826;SDS011;51265;53.972;12.286;2023-01-29T15:06:23;41.70;;;20.95;;
64826;SDS011;51265;53.972;12.286;2023-01-29T15:09:41;37.33;;;20.27;;
64826;SDS011;51265;53.972;12.286;2023-01-29T15:14:59;40.80;;;20.52;;
64826;SDS011;51265;53.972;12.286;2023-01-29T15:17:40;39.63;;;20.15;;
64826;SDS011;51265;53.972;12.286;2023-01-29T15:23:01;39.85;;;20.27;;
64826;SDS011;51265;53.972;12.286;2023-01-29T15:25:45;43.67;;;21.17;;
64826;SDS011;51265;53.972;12.286;2023-01-29T15:28:14;43.10;;;20.92;;
64826;SDS011;51265;53.972;12.286;2023-01-29T15:30:41;43.78;;;21.15;;
64826;SDS011;51265;53.972;12.286;2023-01-29T15:33:08;46.15;;;21.73;;
64826;SDS011;51265;53.972;12.286;2023-01-29T15:35:36;42.55;;;21.58;;
64826;SDS011;51265;53.972;12.286;2023-01-29T15:38:05;45.50;;;22.52;;
64826;SDS011;51265;53.972;12.286;2023-01-29T15:40:32;45.13;;;22.35;;
64826;SDS011;51265;53.972;12.286;2023-01-29T15:42:59;45.60;;;22.83;;
64826;SDS011;51265;53.972;12.286;2023-01-29T15:45:32;47.35;;;21.65;;
64826;SDS011;51265;53.972;12.286;2023-01-29T15:48:12;44.75;;;21.08;;
64826;SDS011;51265;53.972;12.286;2023-01-29T15:50:42;45.88;;;20.88;;
64826;SDS011;51265;53.972;12.286;2023-01-29T15:53:13;44.35;;;21.40;;
64826;SDS011;51265;53.972;12.286;2023-01-29T15:55:45;45.15;;;21.90;;
64826;SDS011;51265;53.972;12.286;2023-01-29T15:58:16;49.58;;;23.42;;
64826;SDS011;51265;53.972;12.286;2023-01-29T16:00:52;42.97;;;21.75;;
64826;SDS011;51265;53.972;12.286;2023-01-29T16:03:23;50.80;;;23.40;;
64826;SDS011;51265;53.972;12.286;2023-01-29T16:05:51;46.25;;;22.30;;
64826;SDS011;51265;53.972;12.286;2023-01-29T16:08:19;44.50;;;21.90;;
64826;SDS011;51265;53.972;12.286;2023-01-29T16:10:48;47.88;;;23.02;;
64826;SDS011;51265;53.972;12.286;2023-01-29T16:13:22;42.40;;;21.77;;
64826;SDS011;51265;53.972;12.286;2023-01-29T16:18:49;50.60;;;22.20;;
64826;SDS011;51265;53.972;12.286;2023-01-29T16:23:56;46.45;;;22.50;;
64826;SDS011;51265;53.972;12.286;2023-01-29T16:26:25;46.45;;;21.10;;
64826;SDS011;51265;53.972;12.286;2023-01-29T16:28:56;50.05;;;23.20;;
64826;SDS011;51265;53.972;12.286;2023-01-29T16:31:28;48.17;;;22.23;;
64826;SDS011;51265;53.972;12.286;2023-01-29T16:33:56;48.55;;;23.48;;
64826;SDS011;51265;53.972;12.286;2023-01-29T16:38:59;45.13;;;21.85;;
64826;SDS011;51265;53.972;12.286;2023-01-29T16:41:32;45.55;;;22.77;;
64826;SDS011;51265;53.972;12.286;2023-01-29T16:46:45;49.95;;;22.88;;
64826;SDS011;51265;53.972;12.286;2023-01-29T16:51:54;54.88;;;23.25;;
64826;SDS011;51265;53.972;12.286;2023-01-29T16:54:23;52.65;;;23.55;;
64826;SDS011;51265;53.972;12.286;2023-01-29T16:56:52;52.15;;;23.52;;
64826;SDS011;51265;53.972;12.286;2023-01-29T16:59:29;50.97;;;22.55;;
64826;SDS011;51265;53.972;12.286;2023-01-29T17:01:59;53.53;;;23.42;;
64826;SDS011;51265;53.972;12.286;2023-01-29T17:04:26;55.75;;;26.35;;
64826;SDS011;51265;53.972;12.286;2023-01-29T17:06:53;51.08;;;24.50;;
64826;SDS011;51265;53.972;12.286;2023-01-29T17:09:22;53.75;;;25.52;;
64826;SDS011;51265;53.972;12.286;2023-01-29T17:11:56;55.17;;;25.67;;
64826;SDS011;51265;53.972;12.286;2023-01-29T17:14:25;55.65;;;25.10;;